createdAt,value
2023-02-14T00:00:06.382Z,3.55
2023-02-14T00:02:09.144Z,5.07
2023-02-14T00:04:11.972Z,3.47
2023-02-14T00:06:15.319Z,4.68
2023-02-14T00:08:17.925Z,4.15
2023-02-14T00:10:20.669Z,4.68
2023-02-14T00:12:23.303Z,4.15
2023-02-14T00:14:44.620Z,3.50
2023-02-14T00:16:47.454Z,3.77
2023-02-14T00:19:05.228Z,4.27
2023-02-14T00:21:07.846Z,3.72
2023-02-14T00:23:10.443Z,3.38
2023-02-14T00:25:13.439Z,3.95
2023-02-14T00:27:16.284Z,4.07
2023-02-14T00:29:21.657Z,3.70
2023-02-14T00:31:24.651Z,3.97
2023-02-14T00:33:27.396Z,3.33
2023-02-14T00:35:29.999Z,3.50
2023-02-14T00:37:33.385Z,4.23
2023-02-14T00:39:36.186Z,4.30
2023-02-14T00:41:39.443Z,3.83
2023-02-14T00:43:42.177Z,3.23
2023-02-14T00:45:44.855Z,2.60
2023-02-14T00:47:47.576Z,3.33
2023-02-14T00:49:50.297Z,3.83
2023-02-14T00:51:52.921Z,3.50
2023-02-14T00:53:55.748Z,3.53
2023-02-14T00:55:58.500Z,3.28
2023-02-14T00:58:01.107Z,3.47
2023-02-14T01:00:04.697Z,3.77
2023-02-14T01:02:07.858Z,3.47
2023-02-14T01:04:10.795Z,4.07
2023-02-14T01:06:13.812Z,2.50
2023-02-14T01:08:16.416Z,3.17
2023-02-14T01:10:19.128Z,3.00
2023-02-14T01:12:21.814Z,3.03
2023-02-14T01:14:24.581Z,2.37
2023-02-14T01:16:29.253Z,2.80
2023-02-14T01:18:32.497Z,2.70
2023-02-14T01:20:35.788Z,3.33
2023-02-14T01:22:39.078Z,3.40
2023-02-14T01:24:41.653Z,2.43
2023-02-14T01:26:44.297Z,2.67
2023-02-14T01:28:47.673Z,2.77
2023-02-14T01:30:52.024Z,2.73
2023-02-14T01:32:54.748Z,3.40
2023-02-14T01:34:57.449Z,3.90
2023-02-14T01:37:00.073Z,3.23
2023-02-14T01:39:06.934Z,2.60
2023-02-14T01:41:09.818Z,2.80
2023-02-14T01:43:16.188Z,2.50
2023-02-14T01:45:25.861Z,2.87
2023-02-14T01:47:33.449Z,3.23
2023-02-14T01:49:50.267Z,3.00
2023-02-14T01:52:14.181Z,2.50
2023-02-14T01:54:18.644Z,3.07
2023-02-14T01:56:31.302Z,2.47
2023-02-14T01:58:36.657Z,3.13
2023-02-14T02:01:00.300Z,3.03
2023-02-14T02:03:05.498Z,3.17
2023-02-14T02:05:08.432Z,3.10
2023-02-14T02:07:16.937Z,3.63
2023-02-14T02:09:25.686Z,2.50
2023-02-14T02:11:28.387Z,3.03
2023-02-14T02:13:31.168Z,2.87
2023-02-14T02:16:04.779Z,3.10
2023-02-14T02:18:46.407Z,3.00
2023-02-14T02:20:58.534Z,3.03
2023-02-14T02:23:18.731Z,2.07
2023-02-14T02:25:45.865Z,3.10
2023-02-14T02:28:03.680Z,2.90
2023-02-14T02:30:12.360Z,3.17
2023-02-14T02:32:26.934Z,2.73
2023-02-14T02:34:32.088Z,2.83
2023-02-14T02:36:43.464Z,2.60
2023-02-14T02:39:18.282Z,2.83
2023-02-14T02:41:33.184Z,2.60
2023-02-14T02:43:52.396Z,2.73
2023-02-14T02:46:42.105Z,3.43
2023-02-14T02:49:15.012Z,2.63
2023-02-14T02:51:44.696Z,2.00
2023-02-14T02:54:04.889Z,2.30
2023-02-14T02:56:35.035Z,2.70
2023-02-14T02:58:43.744Z,3.03
2023-02-14T03:00:49.016Z,2.70
2023-02-14T03:03:14.133Z,2.93
2023-02-14T03:05:17.117Z,2.57
2023-02-14T03:07:37.801Z,3.63
2023-02-14T03:09:42.330Z,2.80
2023-02-14T03:11:58.535Z,2.50
2023-02-14T03:14:22.178Z,2.20
2023-02-14T03:16:34.844Z,2.90
2023-02-14T03:19:16.851Z,2.60
2023-02-14T03:21:33.756Z,2.25
2023-02-14T03:23:48.928Z,2.63
2023-02-14T03:26:09.748Z,2.67
2023-02-14T03:28:18.584Z,2.60
2023-02-14T03:31:16.636Z,2.40
2023-02-14T03:33:29.028Z,3.30
2023-02-14T03:35:46.989Z,2.30
2023-02-14T03:37:52.275Z,2.90
2023-02-14T03:40:44.008Z,3.20
2023-02-14T03:43:17.336Z,2.53
2023-02-14T03:45:30.487Z,2.50
2023-02-14T03:47:37.218Z,2.23
2023-02-14T03:49:48.877Z,2.47
2023-02-14T03:51:55.116Z,2.72
2023-02-14T03:53:59.413Z,2.70
2023-02-14T03:56:16.844Z,3.17
2023-02-14T03:58:28.691Z,3.00
2023-02-14T04:00:36.572Z,2.33
2023-02-14T04:02:49.448Z,2.13
2023-02-14T04:04:53.927Z,2.93
2023-02-14T04:06:56.604Z,2.13
2023-02-14T04:08:59.154Z,2.10
2023-02-14T04:11:04.264Z,3.20
2023-02-14T04:13:06.886Z,2.70
2023-02-14T04:15:10.297Z,3.20
2023-02-14T04:17:31.595Z,2.80
2023-02-14T04:19:34.207Z,2.50
2023-02-14T04:21:36.814Z,2.27
2023-02-14T04:23:39.397Z,2.63
2023-02-14T04:25:43.238Z,1.70
2023-02-14T04:27:45.952Z,2.80
2023-02-14T04:29:50.192Z,2.30
2023-02-14T04:31:52.945Z,1.97
2023-02-14T04:33:56.455Z,2.10
2023-02-14T04:36:00.240Z,2.20
2023-02-14T04:38:03.552Z,2.20
2023-02-14T04:40:06.954Z,2.67
2023-02-14T04:42:10.142Z,3.00
2023-02-14T04:44:12.912Z,3.08
2023-02-14T04:46:15.570Z,2.53
2023-02-14T04:48:18.252Z,3.17
2023-02-14T04:50:20.940Z,2.50
2023-02-14T04:52:23.526Z,2.17
2023-02-14T04:54:26.287Z,2.53
2023-02-14T04:56:28.940Z,2.40
2023-02-14T04:58:31.502Z,3.13
2023-02-14T05:00:34.142Z,3.40
2023-02-14T05:02:37.298Z,3.20
2023-02-14T05:04:40.116Z,3.30
2023-02-14T05:06:42.681Z,3.73
2023-02-14T05:08:45.358Z,2.50
2023-02-14T05:10:48.053Z,2.83
2023-02-14T05:12:50.675Z,2.93
2023-02-14T05:14:53.303Z,3.10
2023-02-14T05:16:55.952Z,2.77
2023-02-14T05:18:58.528Z,2.70
2023-02-14T05:21:01.474Z,3.43
2023-02-14T05:23:05.369Z,3.07
2023-02-14T05:25:08.377Z,2.87
2023-02-14T05:27:12.197Z,2.60
2023-02-14T05:29:14.931Z,2.60
2023-02-14T05:31:17.716Z,3.87
2023-02-14T05:33:20.377Z,2.97
2023-02-14T05:35:23.065Z,2.80
2023-02-14T05:37:25.853Z,2.90
2023-02-14T05:39:28.444Z,3.47
2023-02-14T05:41:31.113Z,3.53
2023-02-14T05:43:33.791Z,3.60
2023-02-14T05:45:36.539Z,3.10
2023-02-14T05:47:40.123Z,3.93
2023-02-14T05:49:43.729Z,3.43
2023-02-14T05:51:47.161Z,4.03
2023-02-14T05:53:49.705Z,3.93
2023-02-14T05:55:52.303Z,2.53
2023-02-14T05:57:55.064Z,3.00
2023-02-14T05:59:57.915Z,3.10
2023-02-14T06:02:00.513Z,2.80
2023-02-14T06:04:03.350Z,2.83
2023-02-14T06:06:06.396Z,2.42
2023-02-14T06:08:09.202Z,3.30
2023-02-14T06:10:12.955Z,3.55
2023-02-14T06:12:15.613Z,3.30
2023-02-14T06:14:18.699Z,2.70
2023-02-14T06:16:21.384Z,3.20
2023-02-14T06:18:27.671Z,2.90
2023-02-14T06:20:31.884Z,3.72
2023-02-14T06:22:34.648Z,2.97
2023-02-14T06:24:37.260Z,3.15
2023-02-14T06:26:39.933Z,2.80
2023-02-14T06:28:43.013Z,3.83
2023-02-14T06:30:47.239Z,2.90
2023-02-14T06:32:50.494Z,2.67
2023-02-14T06:34:53.092Z,2.75
2023-02-14T06:36:56.607Z,3.13
2023-02-14T06:38:59.228Z,2.90
2023-02-14T06:41:06.764Z,3.70
2023-02-14T06:43:09.642Z,3.05
2023-02-14T06:45:12.268Z,3.42
2023-02-14T06:47:15.268Z,3.58
2023-02-14T06:49:17.925Z,3.05
2023-02-14T06:51:20.957Z,3.92
2023-02-14T06:53:23.747Z,3.55
2023-02-14T06:55:26.338Z,3.63
2023-02-14T06:57:30.256Z,3.65
2023-02-14T06:59:32.914Z,3.30
2023-02-14T07:01:35.517Z,3.55
2023-02-14T07:03:38.147Z,3.50
2023-02-14T07:05:40.890Z,3.55
2023-02-14T07:07:43.537Z,3.47
2023-02-14T07:09:46.208Z,3.65
2023-02-14T07:11:48.832Z,3.28
2023-02-14T07:13:51.412Z,3.53
2023-02-14T07:15:54.253Z,4.25
2023-02-14T07:17:56.937Z,3.38
2023-02-14T07:19:59.611Z,4.35
2023-02-14T07:22:02.434Z,3.78
2023-02-14T07:24:05.102Z,3.33
2023-02-14T07:26:07.738Z,3.85
2023-02-14T07:28:10.365Z,4.30
2023-02-14T07:30:14.243Z,4.50
2023-02-14T07:32:18.675Z,3.38
2023-02-14T07:34:21.362Z,3.75
2023-02-14T07:36:23.981Z,3.90
2023-02-14T07:38:26.599Z,3.85
2023-02-14T07:40:30.133Z,3.90
2023-02-14T07:42:32.905Z,3.60
2023-02-14T07:44:35.599Z,3.72
2023-02-14T07:46:38.271Z,3.83
2023-02-14T07:48:41.040Z,4.20
2023-02-14T07:50:43.690Z,4.47
2023-02-14T07:52:46.481Z,4.10
2023-02-14T07:54:49.049Z,3.83
2023-02-14T07:56:51.716Z,3.85
2023-02-14T07:58:54.834Z,3.28
2023-02-14T08:00:57.933Z,4.10
2023-02-14T08:03:00.786Z,4.00
2023-02-14T08:05:03.557Z,3.63
2023-02-14T08:07:06.455Z,3.92
2023-02-14T08:09:10.680Z,3.78
2023-02-14T08:11:33.929Z,3.67
2023-02-14T08:13:36.624Z,3.85
2023-02-14T08:15:57.613Z,3.78
2023-02-14T08:18:00.218Z,3.55
2023-02-14T08:20:03.114Z,3.13
2023-02-14T08:22:07.175Z,4.18
2023-02-14T08:24:09.809Z,3.63
2023-02-14T08:26:12.461Z,3.95
2023-02-14T08:28:15.196Z,3.35
2023-02-14T08:30:18.602Z,3.80
2023-02-14T08:32:21.609Z,2.97
2023-02-14T08:34:24.429Z,3.13
2023-02-14T08:36:27.077Z,3.13
2023-02-14T08:38:30.188Z,4.18
2023-02-14T08:40:35.395Z,3.63
2023-02-14T08:42:37.998Z,3.55
2023-02-14T08:44:40.618Z,3.03
2023-02-14T08:46:43.278Z,3.72
2023-02-14T08:48:46.421Z,3.85
2023-02-14T08:50:50.386Z,2.97
2023-02-14T08:52:53.013Z,2.50
2023-02-14T08:54:55.592Z,3.30
2023-02-14T08:56:58.803Z,3.03
2023-02-14T08:59:01.351Z,2.78
2023-02-14T09:01:24.506Z,2.70
2023-02-14T09:03:27.266Z,3.00
2023-02-14T09:05:30.085Z,2.95
2023-02-14T09:07:32.710Z,3.08
2023-02-14T09:09:35.363Z,3.80
2023-02-14T09:11:38.123Z,2.92
2023-02-14T09:13:42.459Z,3.20
2023-02-14T09:15:45.103Z,3.00
2023-02-14T09:17:48.207Z,2.80
2023-02-14T09:19:50.826Z,2.10
2023-02-14T09:21:53.456Z,2.97
2023-02-14T09:23:56.064Z,2.70
2023-02-14T09:26:08.445Z,3.15
2023-02-14T09:28:11.097Z,2.83
2023-02-14T09:30:14.400Z,2.88
2023-02-14T09:32:17.431Z,3.20
2023-02-14T09:34:38.801Z,2.63
2023-02-14T09:36:41.512Z,2.30
2023-02-14T09:38:44.135Z,2.85
2023-02-14T09:40:48.565Z,2.92
2023-02-14T09:42:51.113Z,3.17
2023-02-14T09:45:00.831Z,3.72
2023-02-14T09:47:18.871Z,2.58
2023-02-14T09:49:33.717Z,3.20
2023-02-14T09:51:37.852Z,3.55
2023-02-14T09:54:02.364Z,3.20
2023-02-14T09:56:12.822Z,3.08
2023-02-14T09:58:39.411Z,3.33
2023-02-14T10:01:15.961Z,3.70
2023-02-14T10:03:37.251Z,4.63
2023-02-14T10:05:54.104Z,4.70
2023-02-14T10:08:01.440Z,5.93
2023-02-14T10:10:25.677Z,4.97
2023-02-14T10:12:35.399Z,5.28
2023-02-14T10:14:41.238Z,5.80
2023-02-14T10:16:52.423Z,5.70
2023-02-14T10:19:26.628Z,6.00
2023-02-14T10:21:41.507Z,6.13
2023-02-14T10:23:51.793Z,5.45
2023-02-14T10:26:06.262Z,5.30
2023-02-14T10:28:12.584Z,5.78
2023-02-14T10:30:21.581Z,5.70
2023-02-14T10:33:06.092Z,5.88
2023-02-14T10:35:31.663Z,5.95
2023-02-14T10:37:58.553Z,6.05
2023-02-14T10:40:06.939Z,6.90
2023-02-14T10:42:16.113Z,6.70
2023-02-14T10:44:56.517Z,7.82
2023-02-14T10:47:26.152Z,8.25
2023-02-14T10:49:57.443Z,8.77
2023-02-14T10:52:34.019Z,8.00
2023-02-14T10:54:42.713Z,7.55
2023-02-14T10:56:58.979Z,7.13
2023-02-14T10:59:16.246Z,7.18
2023-02-14T11:01:20.203Z,7.35
2023-02-14T11:03:24.160Z,6.05
2023-02-14T11:05:40.211Z,6.38
2023-02-14T11:07:45.982Z,6.18
2023-02-14T11:09:48.799Z,6.75
2023-02-14T11:11:59.054Z,6.68
2023-02-14T11:16:36.526Z,6.47
2023-02-14T11:18:42.257Z,6.05
2023-02-14T11:21:01.009Z,6.95
2023-02-14T11:23:22.091Z,6.90
2023-02-14T11:25:30.316Z,6.75
2023-02-14T11:27:33.421Z,6.20
2023-02-14T11:29:45.117Z,6.13
2023-02-14T11:31:48.205Z,6.97
2023-02-14T11:33:51.594Z,6.25
2023-02-14T11:35:54.477Z,6.45
2023-02-14T11:37:58.286Z,5.93
2023-02-14T11:40:01.784Z,6.55
2023-02-14T11:42:06.352Z,5.60
2023-02-14T11:44:23.157Z,5.35
2023-02-14T11:46:28.268Z,6.50
2023-02-14T11:48:38.140Z,6.20
2023-02-14T11:50:42.636Z,6.78
2023-02-14T11:52:55.617Z,7.03
2023-02-14T11:54:58.878Z,6.95
2023-02-14T11:57:28.160Z,5.57
2023-02-14T11:59:36.276Z,6.82
2023-02-14T12:01:38.944Z,7.70
2023-02-14T12:03:48.172Z,5.97
2023-02-14T12:05:54.232Z,7.25
2023-02-14T12:08:05.464Z,7.28
2023-02-14T12:10:11.130Z,6.60
2023-02-14T12:12:26.737Z,7.10
2023-02-14T12:14:32.394Z,7.55
2023-02-14T12:16:43.338Z,6.93
2023-02-14T12:18:50.682Z,6.40
2023-02-14T12:21:24.448Z,7.47
2023-02-14T12:23:35.833Z,7.70
2023-02-14T12:26:03.900Z,6.63
2023-02-14T12:28:14.009Z,8.18
2023-02-14T12:30:21.792Z,8.55
2023-02-14T12:32:27.994Z,8.68
2023-02-14T12:34:30.711Z,8.57
2023-02-14T12:36:48.853Z,9.05
2023-02-14T12:38:54.074Z,9.88
2023-02-14T12:41:24.495Z,9.55
2023-02-14T12:43:51.306Z,9.57
2023-02-14T12:46:21.877Z,10.60
2023-02-14T12:48:55.978Z,8.50
2023-02-14T12:51:06.461Z,10.82
2023-02-14T12:53:27.162Z,10.23
2023-02-14T12:55:59.032Z,11.10
2023-02-14T12:58:16.954Z,10.57
2023-02-14T13:00:42.745Z,9.77
2023-02-14T13:03:20.360Z,10.70
2023-02-14T13:05:50.130Z,10.75
2023-02-14T13:08:14.092Z,9.73
2023-02-14T13:10:42.224Z,10.38
2023-02-14T13:12:57.781Z,11.25
2023-02-14T13:15:36.177Z,10.13
2023-02-14T13:17:58.856Z,10.90
2023-02-14T13:20:13.180Z,11.57
2023-02-14T13:22:21.086Z,10.02
2023-02-14T13:24:28.334Z,10.15
2023-02-14T13:26:35.813Z,11.20
2023-02-14T13:28:41.318Z,10.00
2023-02-14T13:30:45.413Z,10.53
2023-02-14T13:32:51.001Z,10.90
2023-02-14T13:34:54.568Z,10.03
2023-02-14T13:36:59.669Z,12.13
2023-02-14T13:39:03.718Z,10.70
2023-02-14T13:41:08.721Z,10.43
2023-02-14T13:43:11.350Z,10.40
2023-02-14T13:45:40.818Z,9.60
2023-02-14T13:47:43.479Z,11.10
2023-02-14T13:49:57.150Z,10.40
2023-02-14T13:52:03.903Z,10.27
2023-02-14T13:54:32.695Z,12.33
2023-02-14T13:56:35.684Z,10.50
2023-02-14T13:58:53.530Z,10.70
2023-02-14T14:00:56.811Z,10.03
2023-02-14T14:02:59.420Z,11.80
2023-02-14T14:05:30.983Z,10.37
2023-02-14T14:07:33.646Z,11.00
2023-02-14T14:09:42.240Z,10.93
2023-02-14T14:11:44.846Z,9.73
2023-02-14T14:14:01.830Z,10.97
2023-02-14T14:16:29.252Z,10.93
2023-02-14T14:18:38.734Z,11.83
2023-02-14T14:20:48.102Z,11.17
2023-02-14T14:22:56.417Z,10.57
2023-02-14T14:25:05.775Z,16.63
2023-02-14T14:27:21.154Z,10.77
2023-02-14T14:29:48.241Z,10.70
2023-02-14T14:31:56.003Z,10.43
2023-02-14T14:34:01.839Z,10.27
2023-02-14T14:36:08.627Z,11.17
2023-02-14T14:38:14.873Z,9.70
2023-02-14T14:40:28.967Z,18.13
2023-02-14T14:42:41.227Z,10.70
2023-02-14T14:45:05.013Z,10.27
2023-02-14T14:47:16.632Z,9.27
2023-02-14T14:49:22.695Z,12.57
2023-02-14T14:51:28.820Z,10.20
2023-02-14T14:53:52.414Z,27.42
2023-02-14T14:55:56.220Z,11.40
2023-02-14T14:58:04.496Z,11.20
2023-02-14T15:00:20.892Z,10.47
2023-02-14T15:02:27.156Z,10.05
2023-02-14T15:04:35.494Z,10.13
2023-02-14T15:06:39.058Z,12.40
2023-02-14T15:08:41.708Z,9.07
2023-02-14T15:10:50.100Z,11.03
2023-02-14T15:13:14.856Z,9.33
2023-02-14T15:15:18.847Z,9.77
2023-02-14T15:17:25.895Z,10.13
2023-02-14T15:19:41.383Z,10.37
2023-02-14T15:21:45.750Z,9.52
2023-02-14T15:23:50.608Z,8.63
2023-02-14T15:25:53.422Z,9.10
2023-02-14T15:27:57.440Z,8.20
2023-02-14T15:30:02.771Z,9.23
2023-02-14T15:32:10.706Z,9.67
2023-02-14T15:34:13.903Z,8.37
2023-02-14T15:36:21.302Z,8.07
2023-02-14T15:38:26.554Z,8.87
2023-02-14T15:40:32.785Z,8.55
2023-02-14T15:42:44.658Z,8.25
2023-02-14T15:49:00.971Z,7.00
2023-02-14T15:51:06.576Z,7.03
2023-02-14T15:53:41.479Z,7.50
2023-02-14T15:55:44.596Z,6.20
2023-02-14T15:57:55.728Z,5.28
2023-02-14T15:59:59.782Z,5.43
2023-02-14T16:02:15.065Z,6.13
2023-02-14T16:04:33.224Z,4.90
2023-02-14T16:06:44.459Z,4.57
2023-02-14T16:08:56.128Z,4.68
2023-02-14T16:11:16.019Z,4.85
2023-02-14T16:13:29.192Z,3.90
2023-02-14T16:15:35.438Z,3.83
2023-02-14T16:17:38.129Z,4.40
2023-02-14T16:19:45.745Z,4.10
2023-02-14T16:21:57.620Z,4.23
2023-02-14T16:24:11.886Z,4.68
2023-02-14T16:26:15.095Z,4.10
2023-02-14T16:28:18.058Z,4.10
2023-02-14T16:30:21.225Z,3.20
2023-02-14T16:32:24.691Z,4.83
2023-02-14T16:34:28.177Z,3.90
2023-02-14T16:36:33.986Z,4.43
2023-02-14T16:38:44.031Z,2.80
2023-02-14T16:40:50.142Z,4.90
2023-02-14T16:42:53.164Z,3.83
2023-02-14T16:44:55.751Z,3.77
2023-02-14T16:46:58.300Z,2.80
2023-02-14T16:49:01.346Z,3.30
2023-02-14T16:51:04.206Z,3.77
2023-02-14T16:53:12.761Z,2.77
2023-02-14T16:55:20.052Z,3.83
2023-02-14T16:57:29.627Z,3.40
2023-02-14T16:59:32.328Z,3.17
2023-02-14T17:01:35.259Z,3.90
2023-02-14T17:03:40.139Z,3.10
2023-02-14T17:05:42.957Z,2.97
2023-02-14T17:07:47.124Z,3.30
2023-02-14T17:09:56.289Z,3.40
2023-02-14T17:12:03.739Z,3.67
2023-02-14T17:14:07.050Z,3.33
2023-02-14T17:16:12.056Z,3.60
2023-02-14T17:18:16.698Z,7.80
2023-02-14T17:20:20.554Z,2.77
2023-02-14T17:22:23.138Z,2.87
2023-02-14T17:24:26.184Z,3.33
2023-02-14T17:26:29.140Z,3.03
2023-02-14T17:28:32.263Z,3.30
2023-02-14T17:30:35.493Z,4.07
2023-02-14T17:32:38.443Z,3.00
2023-02-14T17:34:41.309Z,2.93
2023-02-14T17:36:44.030Z,2.97
2023-02-14T17:38:47.185Z,3.40
2023-02-14T17:40:49.803Z,3.73
2023-02-14T17:42:52.403Z,3.37
2023-02-14T17:44:55.083Z,2.63
2023-02-14T17:46:58.154Z,3.43
2023-02-14T17:49:02.861Z,3.20
2023-02-14T17:51:07.012Z,4.70
2023-02-14T17:53:09.729Z,3.40
2023-02-14T17:55:13.245Z,3.43
2023-02-14T17:57:15.937Z,4.10
2023-02-14T17:59:18.552Z,3.30
2023-02-14T18:01:23.941Z,3.67
2023-02-14T18:03:26.540Z,3.03
2023-02-14T18:05:29.186Z,3.40
2023-02-14T18:07:31.794Z,3.80
2023-02-14T18:09:34.873Z,3.83
2023-02-14T18:11:40.606Z,3.67
2023-02-14T18:13:43.228Z,3.73
2023-02-14T18:15:46.324Z,3.50
2023-02-14T18:17:50.324Z,3.67
2023-02-14T18:19:52.956Z,3.97
2023-02-14T18:21:55.798Z,3.47
2023-02-14T18:23:59.944Z,4.07
2023-02-14T18:26:07.054Z,3.53
2023-02-14T18:28:09.768Z,2.67
2023-02-14T18:30:12.856Z,4.27
2023-02-14T18:32:15.696Z,3.97
2023-02-14T18:34:18.418Z,3.97
2023-02-14T18:36:24.436Z,4.00
2023-02-14T18:38:27.143Z,3.77
2023-02-14T18:40:29.790Z,4.03
2023-02-14T18:42:32.350Z,3.90
2023-02-14T18:44:35.020Z,3.80
2023-02-14T18:46:37.932Z,3.53
2023-02-14T18:48:41.018Z,3.60
2023-02-14T18:50:43.692Z,3.50
2023-02-14T18:52:46.252Z,4.37
2023-02-14T18:54:48.810Z,3.10
2023-02-14T18:56:51.460Z,18.30
2023-02-14T18:59:00.473Z,3.73
2023-02-14T19:01:13.409Z,4.57
2023-02-14T19:03:16.063Z,4.03
2023-02-14T19:05:18.737Z,4.53
2023-02-14T19:07:21.394Z,3.70
2023-02-14T19:09:27.589Z,3.33
2023-02-14T19:11:31.852Z,3.27
2023-02-14T19:13:34.407Z,4.10
2023-02-14T19:15:37.011Z,3.67
2023-02-14T19:17:39.605Z,9.27
2023-02-14T19:19:42.282Z,4.20
2023-02-14T19:21:44.999Z,4.13
2023-02-14T19:23:48.594Z,4.00
2023-02-14T19:25:51.156Z,4.23
2023-02-14T19:27:53.754Z,4.03
2023-02-14T19:29:56.419Z,5.43
2023-02-14T19:31:59.672Z,4.23
2023-02-14T19:34:03.438Z,7.60
2023-02-14T19:36:07.672Z,3.90
2023-02-14T19:38:10.232Z,3.47
2023-02-14T19:40:12.967Z,4.07
2023-02-14T19:42:15.617Z,3.13
2023-02-14T19:44:19.046Z,3.80
2023-02-14T19:46:24.454Z,4.27
2023-02-14T19:48:27.041Z,3.67
2023-02-14T19:50:30.840Z,3.80
2023-02-14T19:52:34.400Z,3.87
2023-02-14T19:54:39.105Z,4.30
2023-02-14T19:56:44.981Z,5.67
2023-02-14T19:58:48.824Z,3.27
2023-02-14T20:00:59.716Z,3.87
2023-02-14T20:03:04.257Z,4.23
2023-02-14T20:05:08.102Z,4.50
2023-02-14T20:07:10.853Z,4.63
2023-02-14T20:09:15.523Z,3.93
2023-02-14T20:11:50.065Z,4.33
2023-02-14T20:13:59.386Z,5.67
2023-02-14T20:16:03.824Z,5.50
2023-02-14T20:18:08.078Z,5.27
2023-02-14T20:20:14.005Z,4.23
2023-02-14T20:22:16.622Z,4.63
2023-02-14T20:24:29.017Z,5.20
2023-02-14T20:26:33.513Z,5.57
2023-02-14T20:28:36.101Z,4.30
2023-02-14T20:30:40.281Z,5.07
2023-02-14T20:32:42.897Z,4.90
2023-02-14T20:34:45.780Z,4.60
2023-02-14T20:36:53.269Z,6.83
2023-02-14T20:38:57.270Z,6.93
2023-02-14T20:41:08.814Z,5.80
2023-02-14T20:43:11.463Z,6.93
2023-02-14T20:45:14.094Z,4.53
2023-02-14T20:47:17.674Z,14.27
2023-02-14T20:49:21.549Z,5.70
2023-02-14T20:51:26.550Z,5.30
2023-02-14T20:53:29.121Z,5.00
2023-02-14T20:55:31.690Z,7.53
2023-02-14T20:57:34.361Z,5.00
2023-02-14T20:59:37.881Z,8.87
2023-02-14T21:01:40.797Z,4.97
2023-02-14T21:03:46.921Z,36.07
2023-02-14T21:05:49.683Z,4.40
2023-02-14T21:07:52.376Z,11.77
2023-02-14T21:09:55.013Z,5.73
2023-02-14T21:11:58.551Z,7.13
2023-02-14T21:14:02.240Z,5.37
2023-02-14T21:16:07.806Z,10.33
2023-02-14T21:18:10.427Z,4.93
2023-02-14T21:20:13.535Z,4.93
2023-02-14T21:22:17.135Z,5.47
2023-02-14T21:24:19.767Z,4.37
2023-02-14T21:26:22.336Z,5.37
2023-02-14T21:28:25.005Z,6.07
2023-02-14T21:30:31.110Z,6.53
2023-02-14T21:32:33.870Z,4.87
2023-02-14T21:34:36.718Z,4.67
2023-02-14T21:36:39.300Z,5.13
2023-02-14T21:38:42.392Z,3.90
2023-02-14T21:40:44.959Z,4.60
2023-02-14T21:42:47.598Z,4.83
2023-02-14T21:45:08.735Z,5.37
2023-02-14T21:47:11.423Z,3.50
2023-02-14T21:49:32.465Z,4.23
2023-02-14T21:51:35.082Z,4.40
2023-02-14T21:53:37.697Z,4.47
2023-02-14T21:55:42.853Z,14.30
2023-02-14T21:57:45.448Z,4.27
2023-02-14T21:59:48.190Z,4.10
2023-02-14T22:01:50.814Z,3.67
2023-02-14T22:03:54.509Z,4.60
2023-02-14T22:06:07.580Z,5.20
2023-02-14T22:08:10.175Z,4.27
2023-02-14T22:10:13.983Z,4.37
2023-02-14T22:12:16.612Z,3.87
2023-02-14T22:14:19.316Z,4.47
2023-02-14T22:16:23.189Z,6.30
2023-02-14T22:18:25.795Z,3.60
2023-02-14T22:20:28.332Z,4.50
2023-02-14T22:22:33.921Z,4.30
2023-02-14T22:24:36.477Z,3.70
2023-02-14T22:26:40.881Z,3.07
2023-02-14T22:28:45.847Z,8.90
2023-02-14T22:30:48.552Z,4.03
2023-02-14T22:32:51.319Z,4.70
2023-02-14T22:34:55.107Z,4.10
2023-02-14T22:36:57.752Z,4.40
2023-02-14T22:39:00.383Z,3.30
2023-02-14T22:41:08.521Z,3.53
2023-02-14T22:43:11.151Z,3.70
2023-02-14T22:45:13.789Z,4.20
2023-02-14T22:47:16.408Z,3.33
2023-02-14T22:49:19.009Z,4.43
2023-02-14T22:51:24.128Z,4.00
2023-02-14T22:53:26.737Z,3.63
2023-02-14T22:55:30.412Z,4.73
2023-02-14T22:57:33.138Z,4.57
2023-02-14T22:59:35.882Z,4.07
2023-02-14T23:01:38.544Z,4.50
2023-02-14T23:03:41.580Z,4.37
2023-02-14T23:05:44.189Z,3.90
2023-02-14T23:07:46.776Z,4.50
2023-02-14T23:09:49.583Z,4.57
2023-02-14T23:11:52.431Z,3.47
2023-02-14T23:14:14.340Z,4.13
2023-02-14T23:16:35.375Z,4.15
2023-02-14T23:18:56.674Z,3.33
2023-02-14T23:21:17.763Z,3.87
2023-02-14T23:23:20.411Z,3.63
2023-02-14T23:25:22.989Z,3.60
2023-02-14T23:27:37.691Z,3.97
2023-02-14T23:29:40.290Z,5.00
2023-02-14T23:31:43.038Z,3.97
2023-02-14T23:33:47.081Z,3.80
2023-02-14T23:35:50.112Z,4.77
2023-02-14T23:37:52.664Z,4.50
2023-02-14T23:39:55.258Z,4.67
2023-02-14T23:41:57.828Z,5.43
2023-02-14T23:44:00.570Z,5.67
2023-02-14T23:46:03.534Z,6.20
2023-02-14T23:48:06.445Z,6.67
2023-02-14T23:50:09.539Z,6.33
2023-02-14T23:52:13.488Z,6.67
2023-02-14T23:54:17.617Z,7.20
2023-02-14T23:56:20.396Z,6.80
2023-02-14T23:58:23.038Z,6.20
